Latest Weather Observations for Trepell

IDQ60801

Issued at 6:42 pm EST Thursday 3 September 2026 (issued every 10 minutes, with the page automatically refreshed every 10 minutes)

About weather observations | Map of weather stations | Latest weather observations for QLD | Other Formats
Station Details ID: 037036 Name: TREPELL AIRPORT Lat: -21.84 Lon: 140.89 Height: 266.2 m
Data from the previous 72 hours. | See also: Recent months at Trepell
Date/Time
EST
Temp
°C
App
Temp
°C
Dew
Point
°C
Rel
Hum
%
Delta-T
°C
Wind Press
QNH
hPa
Press
MSL
hPa
Rain since
9am
mm
Dir  Spd
km/h
Gust
km/h
Spd
kts
Gust
kts
03/06:30pm 27.8 25.2 6.0 25 11.5 ENE 9 11 5 6 1017.6 1016.4 0.0
03/06:00pm 30.5 26.3 5.7 21 13.2 ENE 17 24 9 13 1017.5 1016.3 0.0
03/05:30pm 31.4 27.2 5.8 20 13.8 NE 17 24 9 13 1017.4 1016.2 0.0
03/05:00pm 32.1 27.9 5.6 19 14.2 ENE 17 28 9 15 1017.4 1016.2 0.0
03/04:30pm 32.3 28.5 5.7 19 14.3 ENE 15 28 8 15 1017.4 1016.2 0.0
03/04:00pm 32.2 28.4 5.7 19 14.3 NE 15 26 8 14 1017.7 1016.5 0.0
03/03:30pm 32.0 29.3 5.5 19 14.2 ESE 9 19 5 10 1017.8 1016.6 0.0
03/03:00pm 32.3 28.9 5.7 19 14.3 ENE 13 32 7 17 1018.2 1017.0 0.0
03/02:30pm 32.9 28.8 6.2 19 14.6 ESE 17 32 9 17 1018.7 1017.6 0.0
03/02:00pm 31.9 28.6 4.6 18 14.4 SE 11 19 6 10 1019.1 1018.0 0.0
03/01:30pm 32.5 27.8 5.1 18 14.7 E 19 28 10 15 1019.6 1018.5 0.0
03/01:00pm 30.7 27.1 6.6 22 13.0 NNE 15 28 8 15 1020.1 1018.9 0.0
03/12:30pm 30.8 26.7 7.9 24 12.7 N 19 33 10 18 1020.6 1019.4 0.0
03/12:00pm 30.8 26.1 9.1 26 12.2 NNE 24 37 13 20 1021.1 1019.9 0.0
03/11:30am 29.6 24.5 9.2 28 11.5 NNE 26 37 14 20 1021.6 1020.4 0.0
03/11:00am 28.4 23.4 9.6 31 10.6 NNE 26 37 14 20 1021.9 1020.8 0.0
03/10:30am 27.7 21.9 9.5 32 10.2 NNE 30 39 16 21 1022.1 1021.0 0.0
03/10:00am 26.5 20.6 8.9 33 9.7 NNE 30 37 16 20 1022.2 1021.1 0.0
03/09:30am 24.7 18.2 8.2 35 8.9 NNE 32 41 17 22 1022.2 1021.1 0.0
03/09:00am 23.9 17.6 7.5 35 8.7 NNE 30 41 16 22 1022.0 1020.9 0.0
03/08:30am 23.7 18.4 6.9 34 8.8 NE 24 30 13 16 1021.9 1020.8 0.0
03/08:00am 22.2 17.1 6.0 35 8.3 NNE 22 32 12 17 1021.5 1020.3 0.0
03/07:30am 20.2 16.3 6.9 42 6.8 NNE 17 20 9 11 1021.1 1019.9 0.0
03/07:29am 20.0 16.1 7.1 43 6.6 NNE 17 20 9 11 1021.1 1019.9 0.0
03/07:00am 15.0 11.8 6.8 58 4.0 NNE 13 15 7 8 1020.8 1019.6 0.0
03/06:30am 14.3 12.2 6.6 60 3.8 NE 7 9 4 5 1020.4 1019.2 0.0
03/06:00am 14.8 12.3 6.4 57 4.1 NNE 9 13 5 7 1020.1 1018.9 0.0
03/05:30am 17.9 15.4 6.4 47 5.8 NNE 9 11 5 6 1019.5 1018.4 0.0
03/05:00am 16.5 13.7 6.9 53 4.8 NNE 11 15 6 8 1019.3 1018.2 0.0
03/04:30am 15.5 12.3 6.8 56 4.3 NNE 13 15 7 8 1019.1 1018.0 0.0
03/04:00am 15.5 12.7 7.0 57 4.2 N 11 13 6 7 1019.0 1017.9 0.0
03/03:30am 15.6 13.3 7.4 58 4.1 NNE 9 13 5 7 1019.0 1017.9 0.0
03/03:00am 13.2 11.1 6.5 64 3.2 NNE 7 13 4 7 1019.1 1018.0 0.0
03/02:30am 14.6 12.7 7.4 62 3.6 N 7 9 4 5 1019.0 1017.9 0.0
03/02:00am 15.9 13.7 7.9 59 4.1 N 9 11 5 6 1019.1 1018.0 0.0
03/01:30am 17.0 14.8 7.9 55 4.7 NNW 9 9 5 5 1019.1 1018.0 0.0
03/01:00am 15.7 13.7 7.2 57 4.3 NNW 7 9 4 5 1019.2 1018.1 0.0
03/12:30am 17.9 15.6 7.3 50 5.4 N 9 11 5 6 1019.3 1018.2 0.0
03/12:00am 18.3 16.0 7.4 49 5.6 NNE 9 13 5 7 1019.4 1018.3 0.0
 
Date/Time
EST
Temp
°C
App
Temp
°C
Dew
Point
°C
Rel
Hum
%
Delta-T
°C
Wind Press
QNH
hPa
Press
MSL
hPa
Rain since
9am
mm
Dir  Spd
km/h
Gust
km/h
Spd
kts
Gust
kts
02/11:30pm 18.4 16.0 7.2 48 5.7 ENE 9 11 5 6 1019.5 1018.4 0.0
02/11:00pm 18.0 15.8 7.7 51 5.3 E 9 13 5 7 1019.6 1018.5 0.0
02/10:30pm 20.2 18.1 8.2 46 6.3 NNW 9 11 5 6 1019.5 1018.4 0.0
02/10:00pm 19.3 17.5 7.1 45 6.2 NNW 6 7 3 4 1019.4 1018.3 0.0
02/09:30pm 20.6 18.6 6.9 41 7.1 NNW 7 9 4 5 1019.3 1018.2 0.0
02/09:00pm 21.7 19.3 7.2 39 7.5 N 9 9 5 5 1019.2 1018.1 0.0
02/08:30pm 20.9 19.0 6.8 40 7.3 N 6 11 3 6 1018.9 1017.8 0.0
02/08:00pm 22.7 20.7 6.9 36 8.2 N 7 9 4 5 1018.5 1017.4 0.0
02/07:30pm 23.5 21.3 6.3 33 8.9 NNE 7 9 4 5 1018.2 1017.0 0.0
02/07:00pm 26.0 24.8 6.6 29 10.2 NNE 2 9 1 5 1017.9 1016.7 0.0
02/06:30pm 26.7 25.8 6.2 27 10.8 CALM 0 0 0 0 1017.7 1016.5 0.0
02/06:00pm 29.7 27.7 6.4 23 12.5 ESE 6 9 3 5 1017.5 1016.3 0.0
02/05:30pm 30.6 28.1 6.5 22 13.1 E 9 13 5 7 1017.4 1016.2 0.0
02/05:00pm 30.9 28.8 6.7 22 13.2 NE 7 15 4 8 1017.2 1016.0 0.0
02/04:30pm 31.3 28.5 7.1 22 13.3 ESE 11 17 6 9 1017.3 1016.1 0.0
02/04:00pm 31.5 28.5 5.8 20 13.8 ESE 11 19 6 10 1017.5 1016.3 0.0
02/03:30pm 30.8 26.9 5.3 20 13.6 NE 15 26 8 14 1017.6 1016.4 0.0
02/03:00pm 30.8 27.5 6.6 22 13.1 ESE 13 22 7 12 1017.9 1016.7 0.0
02/02:30pm 31.1 28.5 6.2 21 13.5 E 9 17 5 9 1018.3 1017.1 0.0
02/02:00pm 30.3 27.5 6.9 23 12.7 NE 11 20 6 11 1019.0 1017.9 0.0
02/01:30pm 29.9 28.1 7.8 25 12.2 NNW 7 28 4 15 1019.5 1018.4 0.0
02/01:00pm 30.1 28.1 8.5 26 12.0 N 9 20 5 11 1020.0 1018.8 0.0
02/12:30pm 29.3 25.4 7.2 25 12.0 NNE 17 32 9 17 1020.7 1019.5 0.0
02/12:00pm 28.4 24.0 7.6 27 11.3 NNE 20 30 11 16 1021.4 1020.2 0.0
02/11:30am 27.3 22.8 8.7 31 10.3 NNE 22 35 12 19 1022.1 1021.0 0.0
02/11:00am 27.6 23.4 9.9 33 10.0 NNE 22 32 12 17 1022.6 1021.5 0.0
02/10:30am 26.2 21.7 8.7 33 9.6 NNE 22 30 12 16 1023.0 1021.9 0.0
02/10:00am 25.4 20.9 8.4 34 9.2 NNE 22 30 12 16 1023.2 1022.1 0.0
02/09:30am 23.5 19.2 8.0 37 8.3 NNE 20 26 11 14 1023.2 1022.1 0.0
02/09:00am 22.0 17.4 8.2 41 7.3 NNE 22 28 12 15 1023.1 1022.0 0.0
02/08:30am 21.0 15.6 8.0 43 6.8 NNE 26 33 14 18 1022.8 1021.7 0.0
02/08:00am 20.5 15.5 6.5 40 7.1 NNE 22 30 12 16 1022.5 1021.4 0.0
02/07:51am 20.0 15.6 6.7 42 6.8 NNE 19 28 10 15 1022.4 1021.3 0.0
02/07:30am 15.0 11.7 6.6 57 4.1 NNE 13 15 7 8 1022.3 1021.2 0.0
02/07:00am 12.6 10.1 4.6 58 3.7 NNE 7 9 4 5 1021.9 1020.8 0.0
02/06:30am 13.6 11.0 4.2 53 4.4 NNE 7 11 4 6 1021.6 1020.4 0.0
02/06:00am 14.3 10.6 4.3 51 4.7 NE 13 13 7 7 1021.1 1019.9 0.0
02/05:30am 14.4 10.7 4.4 51 4.7 NE 13 15 7 8 1020.9 1019.7 0.0
02/05:00am 14.8 10.8 4.8 51 4.7 NE 15 15 8 8 1020.7 1019.5 0.0
02/04:30am 14.8 10.8 5.1 52 4.6 NE 15 17 8 9 1020.7 1019.5 0.0
02/04:00am 14.9 11.8 5.4 53 4.5 NNE 11 13 6 7 1020.8 1019.6 0.0
02/03:30am 15.1 12.5 5.9 54 4.5 NNE 9 11 5 6 1020.6 1019.4 0.0
02/03:00am 16.4 14.2 6.2 51 5.0 NNE 7 9 4 5 1020.6 1019.4 0.0
02/02:30am 17.0 14.4 6.2 49 5.4 NNE 9 11 5 6 1020.8 1019.6 0.0
02/02:00am 16.1 14.0 6.5 53 4.7 NE 7 7 4 4 1020.9 1019.7 0.0
02/01:30am 17.0 15.2 7.1 52 5.0 NE 6 7 3 4 1021.1 1019.9 0.0
02/01:00am 16.9 14.9 7.0 52 5.0 NE 7 9 4 5 1021.1 1019.9 0.0
02/12:30am 18.0 16.0 7.1 49 5.5 NE 7 7 4 4 1021.3 1020.1 0.0
02/12:00am 18.4 16.6 7.2 48 5.7 NE 6 7 3 4 1021.3 1020.1 0.0
 
Date/Time
EST
Temp
°C
App
Temp
°C
Dew
Point
°C
Rel
Hum
%
Delta-T
°C
Wind Press
QNH
hPa
Press
MSL
hPa
Rain since
9am
mm
Dir  Spd
km/h
Gust
km/h
Spd
kts
Gust
kts
01/11:30pm 18.5 16.5 7.3 48 5.7 NNE 7 9 4 5 1021.4 1020.2 0.0
01/11:00pm 18.3 16.4 7.4 49 5.6 ENE 7 9 4 5 1021.3 1020.1 0.0
01/10:30pm 18.4 16.0 6.9 47 5.8 ENE 9 11 5 6 1021.4 1020.2 0.0
01/10:00pm 18.6 16.3 7.4 48 5.7 E 9 11 5 6 1021.3 1020.1 0.0
01/09:30pm 18.6 16.2 7.1 47 5.9 ENE 9 9 5 5 1021.2 1020.0 0.0
01/09:00pm 19.6 17.7 7.4 45 6.3 E 7 9 4 5 1021.0 1019.8 0.0
01/08:30pm 20.5 18.6 7.5 43 6.8 E 7 9 4 5 1020.8 1019.6 0.0
01/08:00pm 21.1 18.8 7.3 41 7.2 E 9 11 5 6 1020.7 1019.5 0.0
01/07:30pm 22.7 19.7 7.7 38 7.9 E 13 15 7 8 1020.4 1019.2 0.0
01/07:00pm 23.8 21.3 8.2 37 8.4 E 11 13 6 7 1020.0 1018.8 0.0
01/06:30pm 25.4 22.9 8.0 33 9.4 E 11 13 6 7 1019.9 1018.7 0.0
01/06:00pm 27.9 25.7 7.7 28 11.0 E 9 13 5 7 1019.6 1018.5 0.0
01/05:30pm 29.2 27.5 7.7 26 11.8 E 6 9 3 5 1019.6 1018.5 0.0
01/05:00pm 29.3 27.1 7.8 26 11.8 E 9 22 5 12 1019.5 1018.4 0.0
01/04:30pm 29.4 27.4 7.3 25 12.1 ENE 7 17 4 9 1019.5 1018.4 0.0
01/04:00pm 30.6 27.4 8.3 25 12.4 ENE 15 22 8 12 1019.6 1018.5 0.0
01/03:30pm 29.7 27.3 8.7 27 11.7 SE 11 20 6 11 1019.9 1018.7 0.0
01/03:00pm 30.0 26.8 8.4 26 12.0 N 15 30 8 16 1020.2 1019.0 0.0
01/02:30pm 29.5 27.0 9.6 29 11.3 N 13 24 7 13 1020.7 1019.5 0.0
01/02:00pm 29.1 27.0 9.8 30 10.9 N 11 20 6 11 1021.1 1019.9 0.0
01/01:30pm 29.6 27.1 9.7 29 11.3 NNE 13 24 7 13 1021.6 1020.4 0.0
01/01:00pm 28.7 26.6 9.9 31 10.6 NNE 11 20 6 11 1022.3 1021.2 0.0
01/12:30pm 28.3 25.1 10.0 32 10.4 NNE 17 28 9 15 1022.9 1021.8 0.0
01/12:00pm 27.6 23.9 9.4 32 10.1 NE 19 32 10 17 1023.4 1022.3 0.0
01/11:30am 27.4 23.8 9.7 33 9.9 NE 19 32 10 17 1024.1 1022.9 0.0
01/11:00am 26.9 23.5 10.6 36 9.2 NNE 19 28 10 15 1024.6 1023.4 0.0
01/10:30am 25.6 22.6 10.6 39 8.5 NE 17 33 9 18 1024.8 1023.6 0.0
01/10:00am 24.7 21.2 10.2 40 8.1 NNE 19 24 10 13 1024.8 1023.6 0.0
01/09:30am 24.1 21.4 10.4 42 7.7 NNE 15 20 8 11 1024.9 1024.2 0.0
01/09:00am 22.8 20.6 9.2 42 7.4 NE 11 17 6 9 1024.7 1024.0 0.0
01/08:30am 20.0 17.5 8.0 46 6.3 NE 11 13 6 7 1024.4 1023.7 0.0
01/08:00am 18.0 16.3 8.3 53 5.0 N 7 11 4 6 1024.2 1023.5 0.0
01/07:30am 14.7 14.2 8.0 64 3.4 CALM 0 0 0 0 1023.7 1023.1 0.0
01/07:00am 13.5 12.8 6.8 64 3.3 CALM 0 0 0 0 1023.2 1022.6 0.0
01/06:30am 13.1 11.2 6.5 64 3.2 ENE 6 7 3 4 1022.9 1022.3 0.0
01/06:00am 13.4 11.5 6.7 64 3.3 NE 6 7 3 4 1022.6 1022.0 0.0
01/05:30am 14.0 11.9 6.8 62 3.5 NE 7 9 4 5 1022.5 1021.9 0.0
01/05:00am 12.8 12.1 6.8 67 2.9 CALM 0 0 0 0 1022.3 1021.7 0.0
01/04:30am 13.6 12.8 6.7 63 3.4 CALM 0 0 0 0 1022.3 1021.7 0.0
01/04:00am 13.3 11.1 6.4 63 3.3 ENE 7 9 4 5 1022.2 1021.6 0.0
01/03:30am 13.2 11.3 6.5 64 3.3 NNE 6 7 3 4 1022.4 1021.8 0.0
01/03:00am 14.4 12.5 6.7 60 3.8 E 6 7 3 4 1022.5 1021.9 0.0
01/02:30am 14.3 13.4 6.2 58 3.9 CALM 0 4 0 2 1022.7 1022.1 0.0
01/02:00am 14.4 13.6 6.3 58 3.9 CALM 0 0 0 0 1022.7 1022.1 0.0
01/01:30am 14.8 13.9 6.1 56 4.2 CALM 0 0 0 0 1022.8 1022.2 0.0
01/01:00am 15.1 12.8 5.9 54 4.5 ENE 7 9 4 5 1022.8 1022.2 0.0
01/12:30am 16.6 14.6 6.1 50 5.2 ENE 6 7 3 4 1022.8 1022.2 0.0
01/12:00am 16.4 14.2 6.0 50 5.1 ENE 7 11 4 6 1022.7 1022.1 0.0
 
Date/Time
EST
Temp
°C
App
Temp
°C
Dew
Point
°C
Rel
Hum
%
Delta-T
°C
Wind Press
QNH
hPa
Press
MSL
hPa
Rain since
9am
mm
Dir  Spd
km/h
Gust
km/h
Spd
kts
Gust
kts
31/11:30pm 16.6 14.3 5.9 49 5.3 E 7 9 4 5 1022.9 1022.3 0.0
31/11:00pm 16.9 13.9 5.8 48 5.4 E 11 13 6 7 1022.9 1022.3 0.0
31/10:30pm 17.4 14.3 5.7 46 5.8 ESE 11 15 6 8 1023.1 1022.5 0.0
31/10:00pm 17.8 14.7 5.7 45 5.9 E 11 13 6 7 1023.1 1022.5 0.0
31/09:30pm 18.2 14.8 5.8 44 6.2 E 13 15 7 8 1022.9 1022.3 0.0
31/09:00pm 18.6 15.5 5.5 42 6.5 E 11 13 6 7 1022.8 1022.2 0.0
31/08:30pm 20.6 16.7 5.4 37 7.6 ESE 15 17 8 9 1022.6 1022.0 0.0
31/08:00pm 20.5 17.1 5.7 38 7.4 ESE 13 15 7 8 1022.4 1021.8 0.0
31/07:30pm 22.0 18.2 5.8 35 8.2 ESE 15 17 8 9 1022.1 1021.5 0.0
31/07:00pm 22.8 19.4 6.1 34 8.6 ESE 13 17 7 9 1022.0 1021.4 0.0

Other formats

Comma delimited format used in spreadsheet applications
http://www.bom.gov.au/fwo/IDQ60801/IDQ60801.94338.axf

JavaScript Object Notation format (JSON) in row-major order
http://www.bom.gov.au/fwo/IDQ60801/IDQ60801.94338.json

Data quality

Most of these data are generated automatically and are frequently updated. Quality checks on data are not normally performed. It is possible for incorrect values to appear. Refer to information at About Latest Weather Observations and please check the disclaimer before using these data.